sensor_id;sensor_type;location;lat;lon;timestamp;P1;durP1;ratioP1;P2;durP2;ratioP2
56429;SDS011;42332;52.136;20.666;2023-09-19T00:02:19;16.73;;;8.80;;
56429;SDS011;42332;52.136;20.666;2023-09-19T00:04:45;17.55;;;9.55;;
56429;SDS011;42332;52.136;20.666;2023-09-19T00:07:10;19.40;;;9.48;;
56429;SDS011;42332;52.136;20.666;2023-09-19T00:09:35;16.55;;;8.60;;
56429;SDS011;42332;52.136;20.666;2023-09-19T00:12:06;21.83;;;9.38;;
56429;SDS011;42332;52.136;20.666;2023-09-19T00:14:34;23.25;;;9.30;;
56429;SDS011;42332;52.136;20.666;2023-09-19T00:17:00;16.55;;;9.18;;
56429;SDS011;42332;52.136;20.666;2023-09-19T00:19:30;20.05;;;9.10;;
56429;SDS011;42332;52.136;20.666;2023-09-19T00:21:57;17.38;;;8.63;;
56429;SDS011;42332;52.136;20.666;2023-09-19T00:24:23;20.38;;;9.55;;
56429;SDS011;42332;52.136;20.666;2023-09-19T00:26:48;19.42;;;9.73;;
56429;SDS011;42332;52.136;20.666;2023-09-19T00:29:13;17.42;;;9.02;;
56429;SDS011;42332;52.136;20.666;2023-09-19T00:31:43;17.23;;;9.45;;
56429;SDS011;42332;52.136;20.666;2023-09-19T00:34:08;17.13;;;9.70;;
56429;SDS011;42332;52.136;20.666;2023-09-19T00:36:35;16.65;;;9.15;;
56429;SDS011;42332;52.136;20.666;2023-09-19T00:39:03;18.73;;;9.88;;
56429;SDS011;42332;52.136;20.666;2023-09-19T00:41:30;19.77;;;8.80;;
56429;SDS011;42332;52.136;20.666;2023-09-19T00:43:55;17.23;;;8.48;;
56429;SDS011;42332;52.136;20.666;2023-09-19T00:46:21;17.95;;;9.55;;
56429;SDS011;42332;52.136;20.666;2023-09-19T00:48:46;21.27;;;9.60;;
56429;SDS011;42332;52.136;20.666;2023-09-19T00:51:12;18.70;;;9.32;;
56429;SDS011;42332;52.136;20.666;2023-09-19T00:53:39;17.92;;;9.23;;
56429;SDS011;42332;52.136;20.666;2023-09-19T00:56:04;20.63;;;8.95;;
56429;SDS011;42332;52.136;20.666;2023-09-19T00:58:31;17.42;;;9.20;;
56429;SDS011;42332;52.136;20.666;2023-09-19T01:00:58;18.65;;;9.73;;
56429;SDS011;42332;52.136;20.666;2023-09-19T01:03:24;21.42;;;9.63;;
56429;SDS011;42332;52.136;20.666;2023-09-19T01:05:49;18.23;;;9.48;;
56429;SDS011;42332;52.136;20.666;2023-09-19T01:08:15;21.83;;;9.68;;
56429;SDS011;42332;52.136;20.666;2023-09-19T01:10:46;20.55;;;9.68;;
56429;SDS011;42332;52.136;20.666;2023-09-19T01:13:30;17.27;;;9.43;;
56429;SDS011;42332;52.136;20.666;2023-09-19T01:27:06;16.70;;;8.93;;
56429;SDS011;42332;52.136;20.666;2023-09-19T01:29:42;16.30;;;9.05;;
56429;SDS011;42332;52.136;20.666;2023-09-19T01:32:10;16.52;;;8.93;;
56429;SDS011;42332;52.136;20.666;2023-09-19T01:34:45;18.95;;;9.45;;
56429;SDS011;42332;52.136;20.666;2023-09-19T01:37:13;18.30;;;9.80;;
56429;SDS011;42332;52.136;20.666;2023-09-19T01:39:46;20.00;;;10.05;;
56429;SDS011;42332;52.136;20.666;2023-09-19T01:44:59;21.13;;;10.30;;
56429;SDS011;42332;52.136;20.666;2023-09-19T01:50:02;15.00;;;8.82;;
56429;SDS011;42332;52.136;20.666;2023-09-19T01:52:38;25.98;;;9.43;;
56429;SDS011;42332;52.136;20.666;2023-09-19T01:55:11;16.63;;;8.90;;
56429;SDS011;42332;52.136;20.666;2023-09-19T01:57:52;19.13;;;9.20;;
56429;SDS011;42332;52.136;20.666;2023-09-19T02:00:26;17.67;;;9.85;;
56429;SDS011;42332;52.136;20.666;2023-09-19T02:02:52;26.20;;;9.93;;
56429;SDS011;42332;52.136;20.666;2023-09-19T02:05:23;17.55;;;9.57;;
56429;SDS011;42332;52.136;20.666;2023-09-19T02:07:50;20.33;;;8.77;;
56429;SDS011;42332;52.136;20.666;2023-09-19T02:10:15;21.38;;;9.68;;
56429;SDS011;42332;52.136;20.666;2023-09-19T02:12:42;17.90;;;9.80;;
56429;SDS011;42332;52.136;20.666;2023-09-19T02:15:08;20.65;;;9.80;;
56429;SDS011;42332;52.136;20.666;2023-09-19T02:17:34;17.67;;;10.02;;
56429;SDS011;42332;52.136;20.666;2023-09-19T02:19:59;17.80;;;9.32;;
56429;SDS011;42332;52.136;20.666;2023-09-19T02:22:25;19.50;;;9.75;;
56429;SDS011;42332;52.136;20.666;2023-09-19T02:24:51;18.85;;;9.02;;
56429;SDS011;42332;52.136;20.666;2023-09-19T02:27:17;17.95;;;9.68;;
56429;SDS011;42332;52.136;20.666;2023-09-19T02:29:43;17.13;;;9.98;;
56429;SDS011;42332;52.136;20.666;2023-09-19T02:32:09;18.85;;;9.27;;
56429;SDS011;42332;52.136;20.666;2023-09-19T02:34:37;19.55;;;9.35;;
56429;SDS011;42332;52.136;20.666;2023-09-19T02:37:04;23.90;;;10.48;;
56429;SDS011;42332;52.136;20.666;2023-09-19T02:39:33;16.65;;;8.90;;
56429;SDS011;42332;52.136;20.666;2023-09-19T02:41:59;17.63;;;9.77;;
56429;SDS011;42332;52.136;20.666;2023-09-19T02:44:24;19.35;;;10.23;;
56429;SDS011;42332;52.136;20.666;2023-09-19T02:46:50;22.70;;;10.07;;
56429;SDS011;42332;52.136;20.666;2023-09-19T02:49:15;20.15;;;10.23;;
56429;SDS011;42332;52.136;20.666;2023-09-19T02:51:43;22.15;;;9.65;;
56429;SDS011;42332;52.136;20.666;2023-09-19T02:54:09;16.77;;;9.80;;
56429;SDS011;42332;52.136;20.666;2023-09-19T02:56:34;17.27;;;9.27;;
56429;SDS011;42332;52.136;20.666;2023-09-19T02:59:00;20.73;;;10.15;;
56429;SDS011;42332;52.136;20.666;2023-09-19T03:01:26;21.23;;;10.15;;
56429;SDS011;42332;52.136;20.666;2023-09-19T03:03:53;21.42;;;10.07;;
56429;SDS011;42332;52.136;20.666;2023-09-19T03:06:18;19.25;;;9.38;;
56429;SDS011;42332;52.136;20.666;2023-09-19T03:08:45;17.33;;;9.75;;
56429;SDS011;42332;52.136;20.666;2023-09-19T03:11:11;18.58;;;9.82;;
56429;SDS011;42332;52.136;20.666;2023-09-19T03:13:39;17.85;;;10.20;;
56429;SDS011;42332;52.136;20.666;2023-09-19T03:16:07;18.52;;;9.85;;
56429;SDS011;42332;52.136;20.666;2023-09-19T03:18:35;22.27;;;10.48;;
56429;SDS011;42332;52.136;20.666;2023-09-19T03:21:01;22.20;;;10.65;;
56429;SDS011;42332;52.136;20.666;2023-09-19T03:23:26;18.25;;;9.18;;
56429;SDS011;42332;52.136;20.666;2023-09-19T03:25:52;21.88;;;9.68;;
56429;SDS011;42332;52.136;20.666;2023-09-19T03:28:18;21.42;;;11.02;;
56429;SDS011;42332;52.136;20.666;2023-09-19T03:30:45;16.88;;;9.88;;
56429;SDS011;42332;52.136;20.666;2023-09-19T03:33:11;18.00;;;9.20;;
56429;SDS011;42332;52.136;20.666;2023-09-19T03:35:37;19.83;;;9.50;;
56429;SDS011;42332;52.136;20.666;2023-09-19T03:38:04;18.10;;;9.27;;
56429;SDS011;42332;52.136;20.666;2023-09-19T03:40:30;21.08;;;10.02;;
56429;SDS011;42332;52.136;20.666;2023-09-19T03:42:55;16.70;;;8.73;;
56429;SDS011;42332;52.136;20.666;2023-09-19T03:45:21;17.98;;;9.70;;
56429;SDS011;42332;52.136;20.666;2023-09-19T03:47:46;18.05;;;10.02;;
56429;SDS011;42332;52.136;20.666;2023-09-19T03:50:12;15.80;;;9.25;;
56429;SDS011;42332;52.136;20.666;2023-09-19T03:52:42;18.42;;;9.30;;
56429;SDS011;42332;52.136;20.666;2023-09-19T03:55:08;17.73;;;8.93;;
56429;SDS011;42332;52.136;20.666;2023-09-19T03:57:34;18.27;;;9.93;;
56429;SDS011;42332;52.136;20.666;2023-09-19T04:00:00;16.83;;;8.75;;
56429;SDS011;42332;52.136;20.666;2023-09-19T04:02:26;19.23;;;8.88;;
56429;SDS011;42332;52.136;20.666;2023-09-19T04:04:57;17.48;;;9.88;;
56429;SDS011;42332;52.136;20.666;2023-09-19T04:07:23;19.17;;;9.00;;
56429;SDS011;42332;52.136;20.666;2023-09-19T04:09:50;18.92;;;9.02;;
56429;SDS011;42332;52.136;20.666;2023-09-19T04:12:18;15.48;;;9.55;;
56429;SDS011;42332;52.136;20.666;2023-09-19T04:14:43;17.08;;;9.55;;
56429;SDS011;42332;52.136;20.666;2023-09-19T04:17:09;17.52;;;9.68;;
56429;SDS011;42332;52.136;20.666;2023-09-19T04:19:35;19.58;;;9.88;;
56429;SDS011;42332;52.136;20.666;2023-09-19T04:22:00;15.77;;;8.93;;
56429;SDS011;42332;52.136;20.666;2023-09-19T04:24:26;15.05;;;8.68;;
56429;SDS011;42332;52.136;20.666;2023-09-19T04:26:51;18.35;;;8.80;;
56429;SDS011;42332;52.136;20.666;2023-09-19T04:29:17;16.42;;;9.50;;
56429;SDS011;42332;52.136;20.666;2023-09-19T04:31:44;20.45;;;10.02;;
56429;SDS011;42332;52.136;20.666;2023-09-19T04:34:10;16.45;;;8.35;;
56429;SDS011;42332;52.136;20.666;2023-09-19T04:36:42;15.10;;;8.63;;
56429;SDS011;42332;52.136;20.666;2023-09-19T04:39:08;17.15;;;9.35;;
56429;SDS011;42332;52.136;20.666;2023-09-19T04:41:35;20.00;;;9.63;;
56429;SDS011;42332;52.136;20.666;2023-09-19T04:44:03;16.70;;;8.52;;
56429;SDS011;42332;52.136;20.666;2023-09-19T04:46:29;18.30;;;9.93;;
56429;SDS011;42332;52.136;20.666;2023-09-19T04:48:55;16.13;;;8.77;;
56429;SDS011;42332;52.136;20.666;2023-09-19T04:51:20;17.08;;;8.85;;
56429;SDS011;42332;52.136;20.666;2023-09-19T04:53:45;18.13;;;8.93;;
56429;SDS011;42332;52.136;20.666;2023-09-19T04:56:11;16.30;;;9.40;;
56429;SDS011;42332;52.136;20.666;2023-09-19T04:58:38;16.40;;;8.65;;
56429;SDS011;42332;52.136;20.666;2023-09-19T05:01:03;19.20;;;9.50;;
56429;SDS011;42332;52.136;20.666;2023-09-19T05:03:29;18.02;;;9.50;;
56429;SDS011;42332;52.136;20.666;2023-09-19T05:05:54;19.80;;;9.55;;
56429;SDS011;42332;52.136;20.666;2023-09-19T05:08:20;16.67;;;9.90;;
56429;SDS011;42332;52.136;20.666;2023-09-19T05:10:47;17.77;;;9.60;;
56429;SDS011;42332;52.136;20.666;2023-09-19T05:13:13;20.23;;;9.10;;
56429;SDS011;42332;52.136;20.666;2023-09-19T05:15:39;16.45;;;8.80;;
56429;SDS011;42332;52.136;20.666;2023-09-19T05:18:04;15.32;;;8.43;;
56429;SDS011;42332;52.136;20.666;2023-09-19T05:20:31;15.68;;;8.23;;
56429;SDS011;42332;52.136;20.666;2023-09-19T05:23:01;18.02;;;9.15;;
56429;SDS011;42332;52.136;20.666;2023-09-19T05:25:31;14.85;;;8.23;;
56429;SDS011;42332;52.136;20.666;2023-09-19T05:27:57;14.70;;;7.80;;
56429;SDS011;42332;52.136;20.666;2023-09-19T05:30:24;17.95;;;7.47;;
56429;SDS011;42332;52.136;20.666;2023-09-19T05:32:54;16.45;;;8.40;;
56429;SDS011;42332;52.136;20.666;2023-09-19T05:35:20;18.80;;;9.25;;
56429;SDS011;42332;52.136;20.666;2023-09-19T05:37:46;19.90;;;7.53;;
56429;SDS011;42332;52.136;20.666;2023-09-19T05:40:14;16.92;;;7.68;;
56429;SDS011;42332;52.136;20.666;2023-09-19T05:42:41;19.60;;;8.05;;
56429;SDS011;42332;52.136;20.666;2023-09-19T05:45:07;21.70;;;7.80;;
56429;SDS011;42332;52.136;20.666;2023-09-19T05:47:36;16.65;;;8.15;;
56429;SDS011;42332;52.136;20.666;2023-09-19T05:50:02;17.75;;;7.60;;
56429;SDS011;42332;52.136;20.666;2023-09-19T05:52:28;13.13;;;7.55;;
56429;SDS011;42332;52.136;20.666;2023-09-19T05:54:53;15.23;;;8.13;;
56429;SDS011;42332;52.136;20.666;2023-09-19T05:57:19;14.70;;;7.68;;
56429;SDS011;42332;52.136;20.666;2023-09-19T05:59:44;14.70;;;7.55;;
56429;SDS011;42332;52.136;20.666;2023-09-19T06:02:10;14.55;;;8.02;;
56429;SDS011;42332;52.136;20.666;2023-09-19T06:04:37;19.48;;;8.85;;
56429;SDS011;42332;52.136;20.666;2023-09-19T06:07:05;14.40;;;8.20;;
56429;SDS011;42332;52.136;20.666;2023-09-19T06:09:31;16.45;;;8.95;;
56429;SDS011;42332;52.136;20.666;2023-09-19T06:11:57;17.77;;;7.90;;
56429;SDS011;42332;52.136;20.666;2023-09-19T06:14:23;20.17;;;8.25;;
56429;SDS011;42332;52.136;20.666;2023-09-19T06:16:49;17.52;;;7.65;;
56429;SDS011;42332;52.136;20.666;2023-09-19T06:19:15;14.55;;;7.55;;
56429;SDS011;42332;52.136;20.666;2023-09-19T06:21:40;24.23;;;7.85;;
56429;SDS011;42332;52.136;20.666;2023-09-19T06:24:06;26.23;;;8.93;;
56429;SDS011;42332;52.136;20.666;2023-09-19T06:26:31;15.23;;;7.47;;
56429;SDS011;42332;52.136;20.666;2023-09-19T06:28:57;17.90;;;7.20;;
56429;SDS011;42332;52.136;20.666;2023-09-19T06:31:24;17.88;;;8.15;;
56429;SDS011;42332;52.136;20.666;2023-09-19T06:33:51;15.15;;;7.38;;
56429;SDS011;42332;52.136;20.666;2023-09-19T06:36:17;19.17;;;7.72;;
56429;SDS011;42332;52.136;20.666;2023-09-19T06:38:42;16.45;;;7.72;;
56429;SDS011;42332;52.136;20.666;2023-09-19T06:41:08;14.43;;;7.95;;
56429;SDS011;42332;52.136;20.666;2023-09-19T06:43:34;12.85;;;6.72;;
56429;SDS011;42332;52.136;20.666;2023-09-19T06:46:00;20.65;;;8.00;;
56429;SDS011;42332;52.136;20.666;2023-09-19T06:48:26;18.98;;;7.72;;
56429;SDS011;42332;52.136;20.666;2023-09-19T06:50:57;16.17;;;7.72;;
56429;SDS011;42332;52.136;20.666;2023-09-19T06:53:33;21.05;;;9.15;;
56429;SDS011;42332;52.136;20.666;2023-09-19T06:55:59;15.35;;;8.43;;
56429;SDS011;42332;52.136;20.666;2023-09-19T06:58:25;14.50;;;7.82;;
56429;SDS011;42332;52.136;20.666;2023-09-19T07:00:50;25.58;;;9.70;;
56429;SDS011;42332;52.136;20.666;2023-09-19T07:03:16;15.90;;;8.13;;
56429;SDS011;42332;52.136;20.666;2023-09-19T07:05:43;18.30;;;9.52;;
56429;SDS011;42332;52.136;20.666;2023-09-19T07:08:09;14.77;;;8.30;;
56429;SDS011;42332;52.136;20.666;2023-09-19T07:10:39;16.58;;;7.28;;
56429;SDS011;42332;52.136;20.666;2023-09-19T07:13:13;18.15;;;9.45;;
56429;SDS011;42332;52.136;20.666;2023-09-19T07:15:42;15.88;;;9.18;;
56429;SDS011;42332;52.136;20.666;2023-09-19T07:18:12;24.58;;;9.40;;
56429;SDS011;42332;52.136;20.666;2023-09-19T07:20:39;12.63;;;6.47;;
56429;SDS011;42332;52.136;20.666;2023-09-19T07:23:10;18.13;;;9.05;;
56429;SDS011;42332;52.136;20.666;2023-09-19T07:25:39;17.20;;;8.68;;
56429;SDS011;42332;52.136;20.666;2023-09-19T07:28:05;17.60;;;8.77;;
56429;SDS011;42332;52.136;20.666;2023-09-19T07:30:30;22.70;;;7.82;;
56429;SDS011;42332;52.136;20.666;2023-09-19T07:32:56;19.60;;;8.25;;
56429;SDS011;42332;52.136;20.666;2023-09-19T07:35:21;25.15;;;9.65;;
56429;SDS011;42332;52.136;20.666;2023-09-19T07:37:47;15.65;;;8.65;;
56429;SDS011;42332;52.136;20.666;2023-09-19T07:40:16;17.73;;;8.80;;
56429;SDS011;42332;52.136;20.666;2023-09-19T07:42:42;15.77;;;8.13;;
56429;SDS011;42332;52.136;20.666;2023-09-19T07:45:09;17.33;;;8.27;;
56429;SDS011;42332;52.136;20.666;2023-09-19T07:47:39;18.38;;;9.43;;
56429;SDS011;42332;52.136;20.666;2023-09-19T07:50:14;17.98;;;8.55;;
56429;SDS011;42332;52.136;20.666;2023-09-19T07:52:46;22.60;;;9.35;;
56429;SDS011;42332;52.136;20.666;2023-09-19T07:55:12;17.00;;;7.40;;
56429;SDS011;42332;52.136;20.666;2023-09-19T07:57:41;18.13;;;8.10;;
56429;SDS011;42332;52.136;20.666;2023-09-19T08:00:07;24.42;;;9.15;;
56429;SDS011;42332;52.136;20.666;2023-09-19T08:02:35;16.95;;;9.07;;
56429;SDS011;42332;52.136;20.666;2023-09-19T08:05:03;16.58;;;8.32;;
56429;SDS011;42332;52.136;20.666;2023-09-19T08:07:32;13.88;;;7.28;;
56429;SDS011;42332;52.136;20.666;2023-09-19T08:09:57;18.17;;;9.43;;
56429;SDS011;42332;52.136;20.666;2023-09-19T08:12:23;15.73;;;9.10;;
56429;SDS011;42332;52.136;20.666;2023-09-19T08:14:49;14.38;;;7.28;;
56429;SDS011;42332;52.136;20.666;2023-09-19T08:17:15;19.42;;;9.27;;
56429;SDS011;42332;52.136;20.666;2023-09-19T08:19:40;18.67;;;8.57;;
56429;SDS011;42332;52.136;20.666;2023-09-19T08:22:07;15.48;;;8.70;;
56429;SDS011;42332;52.136;20.666;2023-09-19T08:24:35;18.20;;;8.55;;
56429;SDS011;42332;52.136;20.666;2023-09-19T08:27:01;19.60;;;9.13;;
56429;SDS011;42332;52.136;20.666;2023-09-19T08:29:29;18.75;;;8.85;;
56429;SDS011;42332;52.136;20.666;2023-09-19T08:31:55;14.57;;;7.78;;
56429;SDS011;42332;52.136;20.666;2023-09-19T08:34:21;14.75;;;8.02;;
56429;SDS011;42332;52.136;20.666;2023-09-19T08:36:48;18.70;;;8.15;;
56429;SDS011;42332;52.136;20.666;2023-09-19T08:39:15;14.77;;;7.60;;
56429;SDS011;42332;52.136;20.666;2023-09-19T08:41:40;17.17;;;7.68;;
56429;SDS011;42332;52.136;20.666;2023-09-19T08:44:06;15.57;;;7.38;;
56429;SDS011;42332;52.136;20.666;2023-09-19T08:46:31;15.55;;;7.47;;
56429;SDS011;42332;52.136;20.666;2023-09-19T08:49:04;10.73;;;6.05;;
56429;SDS011;42332;52.136;20.666;2023-09-19T08:51:45;12.85;;;6.13;;
56429;SDS011;42332;52.136;20.666;2023-09-19T08:54:32;15.23;;;6.28;;
56429;SDS011;42332;52.136;20.666;2023-09-19T08:56:59;13.90;;;5.90;;
56429;SDS011;42332;52.136;20.666;2023-09-19T08:59:27;18.83;;;6.50;;
56429;SDS011;42332;52.136;20.666;2023-09-19T09:01:54;17.08;;;5.95;;
56429;SDS011;42332;52.136;20.666;2023-09-19T09:04:20;12.00;;;5.55;;
56429;SDS011;42332;52.136;20.666;2023-09-19T09:06:47;14.07;;;4.95;;
56429;SDS011;42332;52.136;20.666;2023-09-19T09:09:18;9.70;;;5.10;;
56429;SDS011;42332;52.136;20.666;2023-09-19T09:11:43;11.57;;;4.97;;
56429;SDS011;42332;52.136;20.666;2023-09-19T09:14:08;10.55;;;4.78;;
56429;SDS011;42332;52.136;20.666;2023-09-19T09:16:34;10.05;;;4.65;;
56429;SDS011;42332;52.136;20.666;2023-09-19T09:18:59;12.00;;;3.88;;
56429;SDS011;42332;52.136;20.666;2023-09-19T09:21:25;11.55;;;5.05;;
56429;SDS011;42332;52.136;20.666;2023-09-19T09:23:51;11.20;;;4.82;;
56429;SDS011;42332;52.136;20.666;2023-09-19T09:27:02;14.20;;;4.35;;
56429;SDS011;42332;52.136;20.666;2023-09-19T09:29:07;9.15;;;3.97;;
56429;SDS011;42332;52.136;20.666;2023-09-19T09:31:33;9.88;;;4.20;;
56429;SDS011;42332;52.136;20.666;2023-09-19T09:33:58;8.20;;;3.83;;
56429;SDS011;42332;52.136;20.666;2023-09-19T09:36:37;9.25;;;4.35;;
56429;SDS011;42332;52.136;20.666;2023-09-19T09:39:03;10.35;;;4.45;;
56429;SDS011;42332;52.136;20.666;2023-09-19T09:41:41;15.25;;;4.43;;
56429;SDS011;42332;52.136;20.666;2023-09-19T09:44:13;8.15;;;3.35;;
56429;SDS011;42332;52.136;20.666;2023-09-19T09:46:44;7.05;;;3.28;;
56429;SDS011;42332;52.136;20.666;2023-09-19T09:49:22;12.40;;;3.70;;
56429;SDS011;42332;52.136;20.666;2023-09-19T09:52:01;11.57;;;4.00;;
56429;SDS011;42332;52.136;20.666;2023-09-19T09:54:41;9.85;;;4.80;;
56429;SDS011;42332;52.136;20.666;2023-09-19T09:57:23;10.18;;;4.20;;
56429;SDS011;42332;52.136;20.666;2023-09-19T09:59:58;8.95;;;5.00;;
56429;SDS011;42332;52.136;20.666;2023-09-19T10:02:36;8.98;;;4.32;;
56429;SDS011;42332;52.136;20.666;2023-09-19T10:05:11;10.90;;;4.90;;
56429;SDS011;42332;52.136;20.666;2023-09-19T10:07:50;11.60;;;4.53;;
56429;SDS011;42332;52.136;20.666;2023-09-19T10:13:03;13.27;;;4.72;;
56429;SDS011;42332;52.136;20.666;2023-09-19T10:15:32;10.98;;;4.32;;
56429;SDS011;42332;52.136;20.666;2023-09-19T10:18:00;11.40;;;4.30;;
56429;SDS011;42332;52.136;20.666;2023-09-19T10:20:26;8.18;;;3.85;;
56429;SDS011;42332;52.136;20.666;2023-09-19T10:22:55;6.68;;;3.67;;
56429;SDS011;42332;52.136;20.666;2023-09-19T10:25:25;9.77;;;4.40;;
56429;SDS011;42332;52.136;20.666;2023-09-19T10:27:54;8.23;;;3.90;;
56429;SDS011;42332;52.136;20.666;2023-09-19T10:30:20;8.57;;;3.78;;
56429;SDS011;42332;52.136;20.666;2023-09-19T10:32:47;9.18;;;3.60;;
56429;SDS011;42332;52.136;20.666;2023-09-19T10:35:27;11.35;;;3.83;;
56429;SDS011;42332;52.136;20.666;2023-09-19T10:37:54;7.88;;;2.90;;
56429;SDS011;42332;52.136;20.666;2023-09-19T10:40:20;7.32;;;3.25;;
56429;SDS011;42332;52.136;20.666;2023-09-19T10:42:46;6.50;;;3.28;;
56429;SDS011;42332;52.136;20.666;2023-09-19T10:45:13;9.93;;;3.78;;
56429;SDS011;42332;52.136;20.666;2023-09-19T10:47:40;7.60;;;3.22;;
56429;SDS011;42332;52.136;20.666;2023-09-19T10:50:06;6.88;;;2.72;;
56429;SDS011;42332;52.136;20.666;2023-09-19T10:52:38;8.98;;;3.58;;
56429;SDS011;42332;52.136;20.666;2023-09-19T10:55:06;8.00;;;2.85;;
56429;SDS011;42332;52.136;20.666;2023-09-19T10:57:32;7.60;;;3.47;;
56429;SDS011;42332;52.136;20.666;2023-09-19T11:00:05;9.32;;;3.50;;
56429;SDS011;42332;52.136;20.666;2023-09-19T11:05:34;11.95;;;3.35;;
56429;SDS011;42332;52.136;20.666;2023-09-19T11:08:00;8.65;;;3.65;;
56429;SDS011;42332;52.136;20.666;2023-09-19T11:10:48;8.32;;;3.67;;
56429;SDS011;42332;52.136;20.666;2023-09-19T11:16:09;12.05;;;3.72;;
56429;SDS011;42332;52.136;20.666;2023-09-19T11:26:44;11.18;;;4.25;;
56429;SDS011;42332;52.136;20.666;2023-09-19T11:29:29;7.28;;;3.17;;
56429;SDS011;42332;52.136;20.666;2023-09-19T11:31:56;8.38;;;4.30;;
56429;SDS011;42332;52.136;20.666;2023-09-19T11:37:00;7.38;;;3.65;;
56429;SDS011;42332;52.136;20.666;2023-09-19T11:39:29;10.32;;;3.83;;
56429;SDS011;42332;52.136;20.666;2023-09-19T11:41:54;10.10;;;3.95;;
56429;SDS011;42332;52.136;20.666;2023-09-19T11:44:31;9.57;;;4.35;;
56429;SDS011;42332;52.136;20.666;2023-09-19T11:46:58;13.57;;;4.40;;
56429;SDS011;42332;52.136;20.666;2023-09-19T11:49:28;8.95;;;3.85;;
56429;SDS011;42332;52.136;20.666;2023-09-19T11:51:58;11.15;;;4.15;;
56429;SDS011;42332;52.136;20.666;2023-09-19T11:54:30;8.90;;;3.60;;
56429;SDS011;42332;52.136;20.666;2023-09-19T11:56:59;6.97;;;3.83;;
56429;SDS011;42332;52.136;20.666;2023-09-19T11:59:29;13.25;;;3.85;;
56429;SDS011;42332;52.136;20.666;2023-09-19T12:01:59;8.18;;;4.25;;
56429;SDS011;42332;52.136;20.666;2023-09-19T12:07:07;7.75;;;3.95;;
56429;SDS011;42332;52.136;20.666;2023-09-19T12:09:47;13.38;;;3.63;;
56429;SDS011;42332;52.136;20.666;2023-09-19T12:12:24;7.43;;;3.92;;
56429;SDS011;42332;52.136;20.666;2023-09-19T12:14:54;7.53;;;4.05;;
56429;SDS011;42332;52.136;20.666;2023-09-19T12:17:22;8.20;;;3.60;;
56429;SDS011;42332;52.136;20.666;2023-09-19T12:19:52;8.77;;;3.78;;
56429;SDS011;42332;52.136;20.666;2023-09-19T12:22:18;10.68;;;4.53;;
56429;SDS011;42332;52.136;20.666;2023-09-19T12:24:45;8.50;;;4.00;;
56429;SDS011;42332;52.136;20.666;2023-09-19T12:27:11;14.25;;;3.85;;
56429;SDS011;42332;52.136;20.666;2023-09-19T12:32:16;9.35;;;4.30;;
56429;SDS011;42332;52.136;20.666;2023-09-19T12:34:50;8.15;;;3.63;;
56429;SDS011;42332;52.136;20.666;2023-09-19T12:37:17;9.85;;;3.95;;
56429;SDS011;42332;52.136;20.666;2023-09-19T12:39:46;8.85;;;4.60;;
56429;SDS011;42332;52.136;20.666;2023-09-19T12:42:25;11.85;;;4.55;;
56429;SDS011;42332;52.136;20.666;2023-09-19T12:44:56;8.52;;;4.15;;
56429;SDS011;42332;52.136;20.666;2023-09-19T12:47:23;15.35;;;5.00;;
56429;SDS011;42332;52.136;20.666;2023-09-19T12:52:37;11.25;;;4.97;;
56429;SDS011;42332;52.136;20.666;2023-09-19T12:55:03;9.27;;;4.72;;
56429;SDS011;42332;52.136;20.666;2023-09-19T12:57:30;15.05;;;5.15;;
56429;SDS011;42332;52.136;20.666;2023-09-19T12:59:57;9.88;;;5.00;;
56429;SDS011;42332;52.136;20.666;2023-09-19T13:02:22;8.68;;;4.88;;
56429;SDS011;42332;52.136;20.666;2023-09-19T13:04:53;14.35;;;5.57;;
56429;SDS011;42332;52.136;20.666;2023-09-19T13:10:12;10.98;;;5.38;;
56429;SDS011;42332;52.136;20.666;2023-09-19T13:12:41;10.43;;;4.40;;
56429;SDS011;42332;52.136;20.666;2023-09-19T13:15:09;12.75;;;5.40;;
56429;SDS011;42332;52.136;20.666;2023-09-19T13:17:42;13.15;;;5.93;;
56429;SDS011;42332;52.136;20.666;2023-09-19T13:20:20;11.35;;;6.20;;
56429;SDS011;42332;52.136;20.666;2023-09-19T13:22:53;11.63;;;5.60;;
56429;SDS011;42332;52.136;20.666;2023-09-19T13:25:23;14.60;;;6.28;;
56429;SDS011;42332;52.136;20.666;2023-09-19T13:27:55;14.55;;;5.22;;
56429;SDS011;42332;52.136;20.666;2023-09-19T13:30:25;10.02;;;5.07;;
56429;SDS011;42332;52.136;20.666;2023-09-19T13:32:52;8.50;;;4.60;;
56429;SDS011;42332;52.136;20.666;2023-09-19T13:35:18;14.35;;;5.38;;
56429;SDS011;42332;52.136;20.666;2023-09-19T13:37:45;10.85;;;6.30;;
56429;SDS011;42332;52.136;20.666;2023-09-19T13:40:14;9.02;;;5.15;;
56429;SDS011;42332;52.136;20.666;2023-09-19T13:42:40;10.10;;;4.63;;
56429;SDS011;42332;52.136;20.666;2023-09-19T13:45:06;7.00;;;3.90;;
56429;SDS011;42332;52.136;20.666;2023-09-19T13:47:32;11.13;;;4.97;;
56429;SDS011;42332;52.136;20.666;2023-09-19T13:49:59;7.32;;;3.85;;
56429;SDS011;42332;52.136;20.666;2023-09-19T13:52:25;8.95;;;4.55;;
56429;SDS011;42332;52.136;20.666;2023-09-19T13:54:53;5.38;;;2.53;;
56429;SDS011;42332;52.136;20.666;2023-09-19T13:57:21;8.20;;;3.78;;
56429;SDS011;42332;52.136;20.666;2023-09-19T13:59:46;8.25;;;3.58;;
56429;SDS011;42332;52.136;20.666;2023-09-19T14:02:11;8.27;;;3.70;;
56429;SDS011;42332;52.136;20.666;2023-09-19T14:04:39;6.30;;;3.38;;
56429;SDS011;42332;52.136;20.666;2023-09-19T14:07:05;12.40;;;3.85;;
56429;SDS011;42332;52.136;20.666;2023-09-19T14:09:32;13.02;;;3.75;;
56429;SDS011;42332;52.136;20.666;2023-09-19T14:11:57;6.13;;;3.42;;
56429;SDS011;42332;52.136;20.666;2023-09-19T14:14:23;12.85;;;4.07;;
56429;SDS011;42332;52.136;20.666;2023-09-19T14:16:48;11.48;;;4.07;;
56429;SDS011;42332;52.136;20.666;2023-09-19T14:19:14;8.52;;;3.97;;
56429;SDS011;42332;52.136;20.666;2023-09-19T14:21:41;6.65;;;3.95;;
56429;SDS011;42332;52.136;20.666;2023-09-19T14:24:07;7.40;;;3.78;;
56429;SDS011;42332;52.136;20.666;2023-09-19T14:26:36;10.80;;;4.53;;
56429;SDS011;42332;52.136;20.666;2023-09-19T14:29:02;7.53;;;3.95;;
56429;SDS011;42332;52.136;20.666;2023-09-19T14:31:27;6.82;;;3.90;;
56429;SDS011;42332;52.136;20.666;2023-09-19T14:33:53;11.25;;;4.10;;
56429;SDS011;42332;52.136;20.666;2023-09-19T14:36:20;6.60;;;3.35;;
56429;SDS011;42332;52.136;20.666;2023-09-19T14:38:46;9.02;;;4.60;;
56429;SDS011;42332;52.136;20.666;2023-09-19T14:41:12;7.63;;;4.03;;
56429;SDS011;42332;52.136;20.666;2023-09-19T14:43:38;11.52;;;3.67;;
56429;SDS011;42332;52.136;20.666;2023-09-19T14:46:04;13.07;;;3.55;;
56429;SDS011;42332;52.136;20.666;2023-09-19T14:48:29;7.55;;;3.80;;
56429;SDS011;42332;52.136;20.666;2023-09-19T14:50:55;11.48;;;3.22;;
56429;SDS011;42332;52.136;20.666;2023-09-19T14:53:20;5.75;;;3.22;;
56429;SDS011;42332;52.136;20.666;2023-09-19T14:55:46;6.78;;;3.20;;
56429;SDS011;42332;52.136;20.666;2023-09-19T14:58:13;8.30;;;3.63;;
56429;SDS011;42332;52.136;20.666;2023-09-19T15:00:38;10.35;;;3.47;;
56429;SDS011;42332;52.136;20.666;2023-09-19T15:03:04;12.20;;;3.33;;
56429;SDS011;42332;52.136;20.666;2023-09-19T15:05:29;6.55;;;3.03;;
56429;SDS011;42332;52.136;20.666;2023-09-19T15:07:55;10.25;;;3.90;;
56429;SDS011;42332;52.136;20.666;2023-09-19T15:10:22;6.68;;;3.47;;
56429;SDS011;42332;52.136;20.666;2023-09-19T15:12:47;6.00;;;2.85;;
56429;SDS011;42332;52.136;20.666;2023-09-19T15:15:13;7.68;;;3.20;;